createdAt,value
2019-03-24T00:00:39.768Z,5.19
2019-03-24T00:03:16.538Z,5.32
2019-03-24T00:05:53.206Z,5.36
2019-03-24T00:08:29.121Z,5.23
2019-03-24T00:11:04.958Z,5.47
2019-03-24T00:13:40.876Z,5.44
2019-03-24T00:16:16.618Z,5.62
2019-03-24T00:18:52.338Z,5.64
2019-03-24T00:21:27.928Z,5.48
2019-03-24T00:24:03.786Z,5.46
2019-03-24T00:26:39.386Z,5.59
2019-03-24T00:29:15.120Z,5.54
2019-03-24T00:31:50.980Z,5.44
2019-03-24T00:34:28.567Z,5.47
2019-03-24T00:37:04.433Z,5.43
2019-03-24T00:39:40.202Z,5.40
2019-03-24T00:42:15.902Z,5.42
2019-03-24T00:44:51.650Z,5.57
2019-03-24T00:47:27.337Z,5.45
2019-03-24T00:50:05.219Z,5.47
2019-03-24T00:52:41.026Z,5.54
2019-03-24T00:55:18.262Z,5.54
2019-03-24T00:57:55.036Z,5.59
2019-03-24T01:00:49.221Z,5.65
2019-03-24T01:03:24.924Z,5.83
2019-03-24T01:06:01.824Z,5.72
2019-03-24T01:08:37.654Z,5.69
2019-03-24T01:11:13.333Z,5.69
2019-03-24T01:13:49.110Z,5.66
2019-03-24T01:16:24.884Z,5.65
2019-03-24T01:19:00.665Z,5.66
2019-03-24T01:21:37.253Z,5.81
2019-03-24T01:24:13.094Z,5.75
2019-03-24T01:26:48.771Z,5.64
2019-03-24T01:29:24.582Z,5.58
2019-03-24T01:32:00.299Z,5.58
2019-03-24T01:34:36.144Z,5.67
2019-03-24T01:37:11.805Z,5.75
2019-03-24T01:39:47.528Z,5.82
2019-03-24T01:42:23.209Z,5.79
2019-03-24T01:44:58.893Z,5.76
2019-03-24T01:47:34.707Z,5.71
2019-03-24T01:50:11.089Z,5.74
2019-03-24T01:52:46.787Z,5.84
2019-03-24T01:55:25.992Z,5.79
2019-03-24T01:58:01.845Z,5.80
2019-03-24T02:00:37.727Z,5.74
2019-03-24T02:03:13.461Z,5.86
2019-03-24T02:05:49.303Z,5.92
2019-03-24T02:08:25.008Z,5.89
2019-03-24T02:11:00.712Z,5.92
2019-03-24T02:13:37.240Z,5.77
2019-03-24T02:16:13.046Z,5.77
2019-03-24T02:18:48.756Z,5.83
2019-03-24T02:21:24.460Z,5.81
2019-03-24T02:24:00.109Z,5.78
2019-03-24T02:26:35.887Z,5.90
2019-03-24T02:29:11.657Z,5.73
2019-03-24T02:31:47.396Z,5.80
2019-03-24T02:34:23.095Z,5.97
2019-03-24T02:36:59.796Z,5.97
2019-03-24T02:39:35.540Z,5.83
2019-03-24T02:42:11.156Z,6.02
2019-03-24T02:44:46.744Z,5.98
2019-03-24T02:47:22.454Z,5.92
2019-03-24T02:49:58.326Z,5.81
2019-03-24T02:52:34.901Z,5.85
2019-03-24T02:55:12.131Z,5.90
2019-03-24T02:57:48.667Z,5.95
2019-03-24T03:00:24.458Z,6.01
2019-03-24T03:03:00.167Z,6.05
2019-03-24T03:05:36.035Z,6.09
2019-03-24T03:08:11.767Z,6.02
2019-03-24T03:10:47.521Z,5.95
2019-03-24T03:13:23.232Z,5.98
2019-03-24T03:15:58.818Z,6.03
2019-03-24T03:18:34.555Z,6.01
2019-03-24T03:21:10.225Z,6.08
2019-03-24T03:23:45.803Z,6.10
2019-03-24T03:26:21.494Z,6.12
2019-03-24T03:28:57.201Z,6.04
2019-03-24T03:31:32.969Z,5.96
2019-03-24T03:34:08.599Z,5.96
2019-03-24T03:36:44.340Z,6.02
2019-03-24T03:39:20.169Z,6.06
2019-03-24T03:41:55.852Z,6.00
2019-03-24T03:44:31.533Z,5.97
2019-03-24T03:47:07.320Z,5.97
2019-03-24T03:49:42.998Z,5.95
2019-03-24T03:52:18.690Z,5.96
2019-03-24T03:54:55.278Z,5.94
2019-03-24T03:57:31.058Z,5.92
2019-03-24T04:00:08.460Z,6.00
2019-03-24T04:02:46.913Z,5.97
2019-03-24T04:05:22.681Z,5.97
2019-03-24T04:07:58.501Z,6.04
2019-03-24T04:10:34.391Z,5.92
2019-03-24T04:13:10.229Z,5.81
2019-03-24T04:15:47.987Z,5.88
2019-03-24T04:18:24.000Z,5.84
2019-03-24T04:20:59.700Z,6.09
2019-03-24T04:23:35.442Z,6.01
2019-03-24T04:26:11.340Z,5.93
2019-03-24T04:28:47.703Z,5.89
2019-03-24T04:31:23.437Z,5.80
2019-03-24T04:33:59.154Z,5.76
2019-03-24T04:36:34.866Z,5.72
2019-03-24T04:39:10.651Z,5.59
2019-03-24T04:41:46.282Z,5.72
2019-03-24T04:44:22.005Z,5.75
2019-03-24T04:46:57.593Z,5.77
2019-03-24T04:49:33.361Z,5.66
2019-03-24T04:52:09.095Z,5.62
2019-03-24T04:54:44.777Z,5.53
2019-03-24T04:57:20.490Z,5.55
2019-03-24T04:59:56.089Z,5.52
2019-03-24T05:02:31.832Z,5.56
2019-03-24T05:05:08.009Z,5.43
2019-03-24T05:07:43.969Z,5.45
2019-03-24T05:10:37.788Z,5.45
2019-03-24T05:13:13.549Z,5.48
2019-03-24T05:15:49.279Z,5.39
2019-03-24T05:18:25.095Z,5.31
2019-03-24T05:21:00.715Z,5.37
2019-03-24T05:23:36.522Z,5.33
2019-03-24T05:26:12.289Z,5.32
2019-03-24T05:28:50.522Z,5.40
2019-03-24T05:31:26.544Z,5.29
2019-03-24T05:34:02.375Z,5.24
2019-03-24T05:36:38.255Z,5.23
2019-03-24T05:39:14.068Z,5.08
2019-03-24T05:41:50.061Z,5.12
2019-03-24T05:44:25.913Z,5.10
2019-03-24T05:47:01.833Z,4.93
2019-03-24T05:49:37.623Z,4.88
2019-03-24T05:52:13.387Z,4.94
2019-03-24T05:54:50.143Z,4.89
2019-03-24T05:57:29.828Z,4.81
2019-03-24T06:00:06.284Z,4.80
2019-03-24T06:02:43.411Z,5.00
2019-03-24T06:05:19.044Z,4.88
2019-03-24T06:07:54.819Z,4.73
2019-03-24T06:10:30.525Z,4.72
2019-03-24T06:13:07.268Z,4.65
2019-03-24T06:15:42.952Z,4.72
2019-03-24T06:18:18.554Z,4.56
2019-03-24T06:20:54.267Z,4.63
2019-03-24T06:23:30.589Z,4.70
2019-03-24T06:26:06.436Z,4.79
2019-03-24T06:28:42.217Z,4.82
2019-03-24T06:31:18.134Z,4.96
2019-03-24T06:33:53.911Z,5.25
2019-03-24T06:36:29.578Z,5.42
2019-03-24T06:39:06.503Z,5.49
2019-03-24T06:41:42.411Z,5.74
2019-03-24T06:44:18.094Z,6.07
2019-03-24T06:46:53.824Z,6.02
2019-03-24T06:49:29.539Z,6.42
2019-03-24T06:52:05.446Z,6.49
2019-03-24T06:54:41.365Z,6.76
2019-03-24T06:57:17.572Z,7.08
2019-03-24T06:59:53.378Z,7.39
2019-03-24T07:02:29.130Z,7.54
2019-03-24T07:05:05.240Z,7.60
2019-03-24T07:07:40.926Z,7.64
2019-03-24T07:10:16.811Z,7.40
2019-03-24T07:12:52.541Z,7.32
2019-03-24T07:15:28.300Z,7.78
2019-03-24T07:18:08.432Z,8.02
2019-03-24T07:20:41.422Z,8.07
2019-03-24T07:23:17.416Z,8.01
2019-03-24T07:25:53.519Z,8.28
2019-03-24T07:28:29.289Z,8.32
2019-03-24T07:31:05.508Z,8.32
2019-03-24T07:33:41.087Z,8.30
2019-03-24T07:36:16.914Z,8.43
2019-03-24T07:38:52.775Z,8.36
2019-03-24T07:41:28.657Z,8.16
2019-03-24T07:44:04.592Z,7.98
2019-03-24T07:46:40.315Z,8.19
2019-03-24T07:49:16.312Z,8.39
2019-03-24T07:51:52.140Z,8.42
2019-03-24T07:54:27.926Z,8.55
2019-03-24T07:57:04.694Z,8.30
2019-03-24T07:59:40.477Z,8.65
2019-03-24T08:02:16.547Z,8.84
2019-03-24T08:04:53.276Z,8.95
2019-03-24T08:07:29.237Z,9.00
2019-03-24T08:10:05.822Z,9.16
2019-03-24T08:12:41.576Z,9.37
2019-03-24T08:15:17.224Z,9.60
2019-03-24T08:17:53.071Z,9.76
2019-03-24T08:20:28.826Z,9.82
2019-03-24T08:23:04.540Z,9.95
2019-03-24T08:25:40.290Z,10.19
2019-03-24T08:28:16.305Z,10.31
2019-03-24T08:30:52.115Z,10.55
2019-03-24T08:33:27.878Z,10.54
2019-03-24T08:36:04.111Z,10.41
2019-03-24T08:38:39.936Z,10.58
2019-03-24T08:41:15.763Z,10.81
2019-03-24T08:43:51.557Z,10.83
2019-03-24T08:46:27.245Z,11.14
2019-03-24T08:49:03.898Z,11.18
2019-03-24T08:51:39.730Z,11.13
2019-03-24T08:54:15.607Z,11.18
2019-03-24T08:56:53.687Z,11.26
2019-03-24T08:59:29.592Z,11.24
2019-03-24T09:02:05.403Z,11.04
2019-03-24T09:04:41.177Z,11.28
2019-03-24T09:07:16.989Z,11.26
2019-03-24T09:09:52.783Z,11.33
2019-03-24T09:12:31.094Z,11.08
2019-03-24T09:15:07.152Z,11.38
2019-03-24T09:17:43.037Z,11.32
2019-03-24T09:20:19.053Z,11.20
2019-03-24T09:22:54.866Z,11.08
2019-03-24T09:25:31.628Z,10.78
2019-03-24T09:28:09.217Z,10.99
2019-03-24T09:30:45.207Z,10.70
2019-03-24T09:33:21.007Z,10.58
2019-03-24T09:35:56.723Z,10.74
2019-03-24T09:38:32.875Z,10.87
2019-03-24T09:41:08.611Z,10.88
2019-03-24T09:43:44.509Z,10.88
2019-03-24T09:46:20.287Z,11.23
2019-03-24T09:49:03.050Z,10.95
2019-03-24T09:51:33.675Z,11.36
2019-03-24T09:54:09.586Z,10.45
2019-03-24T09:56:45.331Z,11.05
2019-03-24T09:59:21.067Z,11.23
2019-03-24T10:01:56.836Z,11.14
2019-03-24T10:04:33.447Z,11.22
2019-03-24T10:07:09.235Z,10.99
2019-03-24T10:09:46.599Z,10.35
2019-03-24T10:12:22.512Z,10.48
2019-03-24T10:14:58.209Z,10.63
2019-03-24T10:17:35.068Z,9.99
2019-03-24T10:20:11.253Z,9.96
2019-03-24T10:22:47.060Z,10.28
2019-03-24T10:25:25.721Z,9.88
2019-03-24T10:28:01.976Z,10.52
2019-03-24T10:30:37.706Z,10.60
2019-03-24T10:33:13.476Z,10.62
2019-03-24T10:35:49.345Z,10.52
2019-03-24T10:38:25.171Z,10.41
2019-03-24T10:41:04.691Z,10.44
2019-03-24T10:43:41.985Z,10.26
2019-03-24T10:46:17.754Z,9.99
2019-03-24T10:48:53.690Z,10.08
2019-03-24T10:51:30.633Z,9.86
2019-03-24T10:54:06.497Z,10.24
2019-03-24T10:56:42.219Z,10.28
2019-03-24T10:59:17.972Z,10.30
2019-03-24T11:01:53.673Z,10.45
2019-03-24T11:04:30.332Z,10.66
2019-03-24T11:07:06.244Z,10.85
2019-03-24T11:09:42.214Z,10.35
2019-03-24T11:12:17.963Z,10.22
2019-03-24T11:14:55.387Z,10.28
2019-03-24T11:17:31.099Z,10.15
2019-03-24T11:20:08.076Z,10.35
2019-03-24T11:22:43.900Z,10.94
2019-03-24T11:25:19.829Z,11.10
2019-03-24T11:27:55.665Z,11.01
2019-03-24T11:30:31.403Z,11.53
2019-03-24T11:33:07.352Z,12.01
2019-03-24T11:35:43.074Z,11.66
2019-03-24T11:38:20.301Z,11.99
2019-03-24T11:40:56.100Z,12.05
2019-03-24T11:43:31.895Z,12.30
2019-03-24T11:46:07.633Z,12.58
2019-03-24T11:48:45.237Z,12.69
2019-03-24T11:51:23.885Z,13.33
2019-03-24T11:53:59.943Z,13.65
2019-03-24T11:56:35.727Z,13.51
2019-03-24T11:59:11.520Z,13.44
2019-03-24T12:01:47.348Z,13.91
2019-03-24T12:04:23.229Z,14.06
2019-03-24T12:06:59.133Z,13.83
2019-03-24T12:09:34.986Z,14.22
2019-03-24T12:12:10.772Z,14.50
2019-03-24T12:14:46.702Z,14.75
2019-03-24T12:17:22.579Z,14.85
2019-03-24T12:19:58.462Z,15.03
2019-03-24T12:22:34.350Z,13.22
2019-03-24T12:25:10.865Z,14.49
2019-03-24T12:27:46.647Z,14.49
2019-03-24T12:30:22.586Z,14.98
2019-03-24T12:33:01.135Z,15.15
2019-03-24T12:35:36.964Z,14.45
2019-03-24T12:38:12.878Z,15.26
2019-03-24T12:40:48.745Z,15.54
2019-03-24T12:43:24.541Z,16.24
2019-03-24T12:46:00.426Z,15.36
2019-03-24T12:48:36.185Z,15.23
2019-03-24T12:51:12.504Z,15.29
2019-03-24T12:53:48.336Z,16.03
2019-03-24T12:56:24.207Z,14.73
2019-03-24T12:59:00.128Z,14.50
2019-03-24T13:01:35.975Z,15.34
2019-03-24T13:04:11.805Z,16.17
2019-03-24T13:06:47.742Z,16.61
2019-03-24T13:09:23.520Z,17.34
2019-03-24T13:11:59.374Z,16.05
2019-03-24T13:14:36.049Z,16.85
2019-03-24T13:17:11.798Z,17.18
2019-03-24T13:19:47.551Z,16.12
2019-03-24T13:22:23.439Z,15.27
2019-03-24T13:25:09.928Z,15.98
2019-03-24T13:27:45.702Z,16.77
2019-03-24T13:30:21.648Z,17.02
2019-03-24T13:32:57.375Z,17.02
2019-03-24T13:35:34.157Z,16.79
2019-03-24T13:38:09.940Z,17.63
2019-03-24T13:40:45.667Z,17.77
2019-03-24T13:43:24.386Z,18.63
2019-03-24T13:46:00.117Z,18.04
2019-03-24T13:48:35.910Z,17.06
2019-03-24T13:51:11.810Z,16.80
2019-03-24T13:53:47.754Z,16.47
2019-03-24T13:56:23.497Z,15.77
2019-03-24T13:58:59.336Z,14.41
2019-03-24T14:01:35.118Z,13.89
2019-03-24T14:04:10.897Z,15.05
2019-03-24T14:06:46.684Z,17.26
2019-03-24T14:09:22.516Z,18.56
2019-03-24T14:11:58.246Z,17.98
2019-03-24T14:14:34.060Z,19.82
2019-03-24T14:17:15.044Z,20.01
2019-03-24T14:19:50.774Z,17.93
2019-03-24T14:22:26.548Z,15.93
2019-03-24T14:25:02.423Z,16.72
2019-03-24T14:27:38.199Z,18.66
2019-03-24T14:30:14.520Z,17.89
2019-03-24T14:32:50.160Z,17.39
2019-03-24T14:35:27.757Z,15.72
2019-03-24T14:38:03.604Z,14.09
2019-03-24T14:40:39.478Z,13.48
2019-03-24T14:43:16.474Z,13.19
2019-03-24T14:45:52.218Z,12.27
2019-03-24T14:48:27.937Z,12.48
2019-03-24T14:51:03.727Z,12.25
2019-03-24T14:53:39.449Z,12.74
2019-03-24T14:56:15.222Z,12.29
2019-03-24T14:58:50.969Z,12.14
2019-03-24T15:01:26.718Z,11.95
2019-03-24T15:04:06.663Z,13.07
2019-03-24T15:06:42.436Z,14.71
2019-03-24T15:09:18.156Z,14.17
2019-03-24T15:11:53.943Z,13.74
2019-03-24T15:14:29.662Z,14.22
2019-03-24T15:17:05.435Z,13.95
2019-03-24T15:19:41.197Z,13.46
2019-03-24T15:22:17.032Z,13.02
2019-03-24T15:24:54.893Z,12.46
2019-03-24T15:27:30.632Z,12.38
2019-03-24T15:30:06.602Z,12.77
2019-03-24T15:32:42.368Z,13.16
2019-03-24T15:35:18.072Z,13.50
2019-03-24T15:38:06.636Z,12.89
2019-03-24T15:40:31.266Z,12.46
2019-03-24T15:43:07.435Z,12.09
2019-03-24T15:45:43.230Z,12.63
2019-03-24T15:48:18.948Z,13.35
2019-03-24T15:50:54.872Z,14.09
2019-03-24T15:53:30.697Z,13.80
2019-03-24T15:56:10.898Z,13.63
2019-03-24T15:58:46.712Z,14.86
2019-03-24T16:01:22.465Z,16.14
2019-03-24T16:03:58.210Z,16.63
2019-03-24T16:06:34.841Z,16.11
2019-03-24T16:09:10.896Z,17.00
2019-03-24T16:11:46.658Z,15.48
2019-03-24T16:14:22.582Z,15.54
2019-03-24T16:16:58.359Z,16.50
2019-03-24T16:19:34.450Z,16.50
2019-03-24T16:22:10.310Z,15.83
2019-03-24T16:24:46.066Z,14.71
2019-03-24T16:27:22.015Z,15.19
2019-03-24T16:29:57.984Z,16.16
2019-03-24T16:32:33.863Z,16.23
2019-03-24T16:35:09.976Z,16.17
2019-03-24T16:37:45.753Z,15.96
2019-03-24T16:40:21.500Z,14.09
2019-03-24T16:42:57.421Z,12.81
2019-03-24T16:45:49.278Z,12.03
2019-03-24T16:48:36.178Z,11.59
2019-03-24T16:51:03.170Z,11.61
2019-03-24T16:53:41.038Z,12.58
2019-03-24T16:56:16.892Z,13.28
2019-03-24T16:58:53.765Z,12.95
2019-03-24T17:01:29.576Z,12.64
2019-03-24T17:04:05.867Z,12.41
2019-03-24T17:06:41.788Z,12.04
2019-03-24T17:09:17.575Z,11.68
2019-03-24T17:11:53.633Z,11.35
2019-03-24T17:14:30.365Z,11.35
2019-03-24T17:17:06.245Z,10.93
2019-03-24T17:19:42.168Z,10.99
2019-03-24T17:22:17.941Z,10.95
2019-03-24T17:24:53.924Z,10.64
2019-03-24T17:27:30.687Z,10.53
2019-03-24T17:30:07.614Z,10.28
2019-03-24T17:32:43.593Z,10.21
2019-03-24T17:35:21.003Z,10.18
2019-03-24T17:37:57.564Z,10.01
2019-03-24T17:40:38.838Z,10.07
2019-03-24T17:43:12.777Z,9.97
2019-03-24T17:45:48.679Z,9.84
2019-03-24T17:48:24.557Z,9.74
2019-03-24T17:51:00.678Z,9.53
2019-03-24T17:53:36.481Z,9.67
2019-03-24T17:56:12.274Z,9.72
2019-03-24T17:58:48.126Z,9.68
2019-03-24T18:01:23.918Z,9.40
2019-03-24T18:03:59.705Z,9.46
2019-03-24T18:06:36.333Z,9.40
2019-03-24T18:09:12.158Z,9.42
2019-03-24T18:11:47.924Z,9.22
2019-03-24T18:14:24.745Z,9.41
2019-03-24T18:17:00.665Z,9.25
2019-03-24T18:19:36.537Z,9.29
2019-03-24T18:22:12.263Z,9.24
2019-03-24T18:24:48.035Z,9.12
2019-03-24T18:27:26.157Z,9.25
2019-03-24T18:30:03.639Z,9.33
2019-03-24T18:32:39.936Z,9.34
2019-03-24T18:35:15.543Z,9.35
2019-03-24T18:37:51.305Z,9.31
2019-03-24T18:40:27.619Z,9.44
2019-03-24T18:43:03.389Z,9.46
2019-03-24T18:45:39.353Z,9.29
2019-03-24T18:48:15.126Z,9.37
2019-03-24T18:50:50.863Z,9.36
2019-03-24T18:53:26.598Z,9.41
2019-03-24T18:56:02.363Z,9.29
2019-03-24T18:58:38.143Z,9.32
2019-03-24T19:01:14.887Z,9.34
2019-03-24T19:03:50.605Z,9.48
2019-03-24T19:06:27.115Z,9.44
2019-03-24T19:09:03.113Z,9.73
2019-03-24T19:11:38.960Z,9.53
2019-03-24T19:14:14.734Z,9.39
2019-03-24T19:16:50.477Z,9.31
2019-03-24T19:19:26.290Z,9.23
2019-03-24T19:22:03.384Z,9.32
2019-03-24T19:24:39.125Z,9.44
2019-03-24T19:27:14.839Z,9.42
2019-03-24T19:29:50.581Z,9.22
2019-03-24T19:32:26.180Z,9.18
2019-03-24T19:35:01.912Z,8.98
2019-03-24T19:37:39.403Z,8.73
2019-03-24T19:40:29.733Z,8.54
2019-03-24T19:43:05.505Z,8.73
2019-03-24T19:45:41.252Z,8.70
2019-03-24T19:48:17.945Z,8.65
2019-03-24T19:50:53.739Z,8.74
2019-03-24T19:53:29.466Z,8.93
2019-03-24T19:56:05.178Z,8.88
2019-03-24T19:58:40.927Z,8.62
2019-03-24T20:01:17.679Z,8.28
2019-03-24T20:03:53.608Z,8.23
2019-03-24T20:06:29.268Z,8.16
2019-03-24T20:09:07.435Z,8.19
2019-03-24T20:11:43.461Z,8.01
2019-03-24T20:14:19.291Z,7.98
2019-03-24T20:16:55.118Z,7.84
2019-03-24T20:19:31.904Z,7.95
2019-03-24T20:22:13.203Z,7.75
2019-03-24T20:24:48.958Z,7.75
2019-03-24T20:27:26.281Z,7.67
2019-03-24T20:30:04.243Z,7.63
2019-03-24T20:32:43.475Z,7.56
2019-03-24T20:35:20.469Z,7.38
2019-03-24T20:37:56.213Z,7.42
2019-03-24T20:40:32.181Z,7.33
2019-03-24T20:43:07.991Z,7.36
2019-03-24T20:45:43.883Z,7.33
2019-03-24T20:48:19.705Z,7.32
2019-03-24T20:50:55.450Z,7.26
2019-03-24T20:53:31.151Z,7.20
2019-03-24T20:56:06.985Z,7.23
2019-03-24T20:58:42.722Z,7.16
2019-03-24T21:01:19.517Z,7.11
2019-03-24T21:03:55.340Z,6.94
2019-03-24T21:06:31.081Z,6.93
2019-03-24T21:09:08.943Z,6.76
2019-03-24T21:11:46.831Z,6.82
2019-03-24T21:14:22.566Z,6.78
2019-03-24T21:16:58.522Z,6.83
2019-03-24T21:19:35.216Z,6.78
2019-03-24T21:22:10.944Z,6.74
2019-03-24T21:24:46.673Z,6.64
2019-03-24T21:27:22.519Z,6.66
2019-03-24T21:29:58.688Z,6.65
2019-03-24T21:32:34.553Z,6.56
2019-03-24T21:35:10.567Z,6.50
2019-03-24T21:37:46.584Z,6.66
2019-03-24T21:40:22.269Z,6.56
2019-03-24T21:42:58.009Z,6.45
2019-03-24T21:45:33.867Z,6.39
2019-03-24T21:48:09.715Z,6.37
2019-03-24T21:50:46.285Z,6.47
2019-03-24T21:53:22.135Z,6.36
2019-03-24T21:55:57.856Z,6.33
2019-03-24T21:58:33.815Z,6.33
2019-03-24T22:01:09.526Z,6.40
2019-03-24T22:03:45.319Z,6.38
2019-03-24T22:06:21.033Z,6.36
2019-03-24T22:08:56.681Z,6.35
2019-03-24T22:11:32.405Z,6.39
2019-03-24T22:14:08.005Z,6.52
2019-03-24T22:16:43.796Z,6.50
2019-03-24T22:19:19.434Z,6.58
2019-03-24T22:21:55.099Z,6.50
2019-03-24T22:24:30.847Z,6.47
2019-03-24T22:27:06.417Z,6.57
2019-03-24T22:29:42.177Z,6.59
2019-03-24T22:32:17.881Z,6.71
2019-03-24T22:34:53.641Z,6.73
2019-03-24T22:37:29.244Z,6.84
2019-03-24T22:40:07.248Z,6.92
2019-03-24T22:42:43.535Z,6.83
2019-03-24T22:45:19.216Z,6.80
2019-03-24T22:47:54.988Z,6.69
2019-03-24T22:50:30.694Z,6.72
2019-03-24T22:53:06.340Z,6.82
2019-03-24T22:55:42.037Z,6.76
2019-03-24T22:58:17.800Z,6.82
2019-03-24T23:00:55.409Z,6.90
2019-03-24T23:03:31.259Z,6.97
2019-03-24T23:06:07.220Z,6.97
2019-03-24T23:08:42.948Z,6.96
2019-03-24T23:11:18.530Z,6.94
2019-03-24T23:13:54.375Z,6.90
2019-03-24T23:16:30.072Z,6.92
2019-03-24T23:19:05.685Z,6.90
2019-03-24T23:21:41.384Z,6.84
2019-03-24T23:24:35.735Z,6.82
2019-03-24T23:27:11.714Z,6.73
2019-03-24T23:29:47.593Z,6.70
2019-03-24T23:32:25.736Z,6.90
2019-03-24T23:35:03.997Z,6.86
2019-03-24T23:37:41.694Z,6.68
2019-03-24T23:40:18.441Z,6.72
2019-03-24T23:42:55.025Z,6.72
2019-03-24T23:45:30.746Z,6.79
2019-03-24T23:48:10.621Z,6.82
2019-03-24T23:50:46.382Z,6.67
2019-03-24T23:53:22.209Z,6.87
2019-03-24T23:55:58.026Z,6.71
2019-03-24T23:58:40.688Z,6.71
